createdAt,value
2018-09-01T00:00:42.916Z,11.36
2018-09-01T00:01:42.915Z,11.38
2018-09-01T00:02:42.957Z,11.28
2018-09-01T00:03:42.920Z,11.29
2018-09-01T00:04:42.913Z,11.31
2018-09-01T00:05:42.925Z,11.28
2018-09-01T00:06:42.924Z,11.24
2018-09-01T00:07:42.941Z,11.27
2018-09-01T00:08:42.914Z,11.28
2018-09-01T00:09:42.913Z,11.27
2018-09-01T00:10:42.911Z,11.14
2018-09-01T00:11:42.909Z,11.07
2018-09-01T00:12:42.933Z,11.02
2018-09-01T00:13:42.897Z,10.92
2018-09-01T00:14:42.902Z,10.89
2018-09-01T00:15:42.898Z,10.84
2018-09-01T00:16:42.894Z,10.91
2018-09-01T00:17:42.922Z,10.86
2018-09-01T00:18:42.892Z,10.76
2018-09-01T00:19:42.895Z,10.73
2018-09-01T00:20:42.895Z,10.68
2018-09-01T00:21:42.884Z,10.73
2018-09-01T00:22:42.920Z,10.60
2018-09-01T00:23:42.881Z,10.59
2018-09-01T00:24:42.883Z,10.65
2018-09-01T00:25:42.888Z,10.62
2018-09-01T00:26:42.878Z,10.76
2018-09-01T00:27:42.908Z,10.70
2018-09-01T00:28:42.880Z,10.63
2018-09-01T00:29:42.872Z,10.66
2018-09-01T00:30:42.879Z,10.63
2018-09-01T00:31:42.866Z,10.60
2018-09-01T00:32:42.886Z,10.68
2018-09-01T00:33:42.857Z,10.62
2018-09-01T00:34:42.866Z,10.65
2018-09-01T00:35:42.854Z,10.56
2018-09-01T00:36:42.861Z,10.51
2018-09-01T00:37:42.886Z,10.47
2018-09-01T00:38:42.852Z,10.44
2018-09-01T00:39:42.847Z,10.43
2018-09-01T00:40:42.841Z,10.46
2018-09-01T00:41:42.842Z,10.44
2018-09-01T00:42:42.875Z,10.55
2018-09-01T00:43:42.834Z,10.42
2018-09-01T00:44:42.838Z,10.39
2018-09-01T00:45:42.846Z,10.42
2018-09-01T00:46:42.833Z,10.36
2018-09-01T00:47:42.863Z,10.32
2018-09-01T00:48:42.827Z,10.26
2018-09-01T00:49:42.835Z,10.22
2018-09-01T00:50:42.830Z,10.26
2018-09-01T00:51:42.822Z,10.30
2018-09-01T00:52:42.858Z,10.28
2018-09-01T00:53:42.822Z,10.25
2018-09-01T00:54:42.821Z,10.28
2018-09-01T00:55:42.813Z,10.28
2018-09-01T00:56:42.806Z,10.17
2018-09-01T00:57:42.848Z,10.12
2018-09-01T00:58:42.804Z,10.21
2018-09-01T00:59:42.798Z,10.18
2018-09-01T01:00:42.794Z,10.25
2018-09-01T01:01:42.795Z,10.18
2018-09-01T01:02:42.824Z,10.22
2018-09-01T01:03:42.786Z,10.26
2018-09-01T01:04:42.788Z,10.24
2018-09-01T01:05:42.792Z,10.21
2018-09-01T01:06:42.780Z,10.10
2018-09-01T01:07:42.814Z,10.09
2018-09-01T01:08:42.783Z,10.03
2018-09-01T01:09:42.779Z,10.06
2018-09-01T01:10:42.777Z,9.99
2018-09-01T01:11:42.780Z,10.03
2018-09-01T01:12:42.812Z,10.01
2018-09-01T01:13:42.766Z,10.07
2018-09-01T01:14:42.767Z,10.00
2018-09-01T01:15:42.766Z,9.99
2018-09-01T01:16:42.771Z,9.93
2018-09-01T01:17:42.791Z,9.85
2018-09-01T01:18:42.759Z,9.89
2018-09-01T01:19:42.752Z,9.88
2018-09-01T01:20:42.746Z,9.82
2018-09-01T01:21:42.751Z,9.86
2018-09-01T01:22:42.770Z,9.82
2018-09-01T01:23:42.741Z,9.83
2018-09-01T01:24:42.742Z,9.78
2018-09-01T01:25:42.738Z,9.79
2018-09-01T01:26:42.768Z,9.73
2018-09-01T01:27:42.735Z,9.78
2018-09-01T01:28:42.740Z,9.79
2018-09-01T01:29:42.721Z,9.78
2018-09-01T01:30:42.723Z,9.61
2018-09-01T01:31:42.749Z,9.68
2018-09-01T01:32:42.724Z,9.66
2018-09-01T01:33:42.722Z,9.68
2018-09-01T01:34:42.721Z,9.60
2018-09-01T01:35:42.710Z,9.57
2018-09-01T01:36:42.739Z,9.57
2018-09-01T01:37:42.705Z,9.52
2018-09-01T01:38:42.705Z,9.56
2018-09-01T01:39:42.700Z,9.46
2018-09-01T01:40:42.699Z,9.43
2018-09-01T01:41:42.721Z,9.57
2018-09-01T01:42:42.700Z,9.46
2018-09-01T01:43:42.689Z,9.52
2018-09-01T01:44:42.695Z,9.53
2018-09-01T01:45:42.687Z,9.53
2018-09-01T01:46:42.728Z,9.43
2018-09-01T01:47:42.676Z,9.48
2018-09-01T01:48:42.686Z,9.46
2018-09-01T01:49:42.733Z,9.52
2018-09-01T01:50:42.678Z,9.43
2018-09-01T01:51:42.696Z,9.42
2018-09-01T01:52:42.668Z,9.40
2018-09-01T01:53:42.667Z,9.34
2018-09-01T01:54:42.668Z,9.28
2018-09-01T01:55:42.668Z,9.30
2018-09-01T01:56:42.685Z,9.24
2018-09-01T01:57:42.653Z,9.25
2018-09-01T01:58:42.652Z,9.21
2018-09-01T01:59:42.645Z,9.25
2018-09-01T02:00:42.645Z,9.23
2018-09-01T02:01:42.669Z,9.23
2018-09-01T02:02:42.645Z,9.25
2018-09-01T02:03:42.633Z,9.15
2018-09-01T02:04:42.633Z,9.21
2018-09-01T02:05:42.637Z,9.15
2018-09-01T02:06:42.654Z,9.10
2018-09-01T02:07:42.627Z,9.23
2018-09-01T02:08:42.621Z,9.28
2018-09-01T02:09:42.621Z,9.25
2018-09-01T02:10:42.618Z,9.24
2018-09-01T02:11:42.642Z,9.20
2018-09-01T02:12:42.619Z,9.23
2018-09-01T02:13:42.616Z,9.25
2018-09-01T02:14:42.608Z,9.27
2018-09-01T02:15:42.600Z,9.24
2018-09-01T02:16:42.626Z,9.15
2018-09-01T02:17:42.597Z,9.06
2018-09-01T02:18:42.597Z,9.13
2018-09-01T02:19:42.591Z,9.12
2018-09-01T02:20:42.591Z,9.16
2018-09-01T02:21:42.614Z,9.27
2018-09-01T02:22:42.582Z,9.24
2018-09-01T02:23:42.582Z,9.09
2018-09-01T02:24:42.585Z,9.15
2018-09-01T02:25:42.630Z,9.18
2018-09-01T02:26:42.571Z,9.24
2018-09-01T02:27:42.564Z,9.10
2018-09-01T02:28:42.568Z,9.27
2018-09-01T02:29:42.562Z,9.24
2018-09-01T02:30:42.586Z,9.27
2018-09-01T02:31:42.565Z,9.20
2018-09-01T02:32:42.557Z,9.20
2018-09-01T02:33:42.552Z,9.31
2018-09-01T02:34:42.549Z,9.23
2018-09-01T02:35:42.578Z,9.20
2018-09-01T02:36:42.554Z,9.06
2018-09-01T02:37:42.540Z,9.12
2018-09-01T02:38:42.538Z,9.09
2018-09-01T02:39:42.535Z,9.10
2018-09-01T02:40:42.565Z,9.15
2018-09-01T02:41:42.665Z,9.05
2018-09-01T02:42:42.541Z,9.05
2018-09-01T02:43:42.524Z,9.04
2018-09-01T02:44:42.520Z,9.01
2018-09-01T02:45:42.552Z,8.96
2018-09-01T02:46:42.517Z,8.90
2018-09-01T02:47:42.505Z,8.84
2018-09-01T02:48:42.513Z,8.78
2018-09-01T02:49:42.502Z,8.76
2018-09-01T02:50:42.534Z,8.81
2018-09-01T02:51:42.524Z,8.68
2018-09-01T02:52:42.498Z,8.75
2018-09-01T02:53:42.495Z,8.71
2018-09-01T02:54:42.505Z,8.63
2018-09-01T02:55:42.522Z,8.71
2018-09-01T02:56:42.501Z,8.68
2018-09-01T02:57:42.494Z,8.78
2018-09-01T02:58:42.477Z,8.76
2018-09-01T02:59:42.481Z,8.73
2018-09-01T03:00:42.504Z,8.81
2018-09-01T03:01:42.483Z,8.71
2018-09-01T03:02:42.481Z,8.63
2018-09-01T03:03:42.504Z,8.63
2018-09-01T03:04:42.475Z,8.65
2018-09-01T03:05:42.501Z,8.60
2018-09-01T03:06:42.474Z,8.60
2018-09-01T03:07:42.477Z,8.57
2018-09-01T03:08:42.452Z,8.58
2018-09-01T03:09:42.449Z,8.50
2018-09-01T03:10:42.477Z,8.54
2018-09-01T03:11:42.452Z,8.57
2018-09-01T03:12:42.461Z,8.58
2018-09-01T03:13:42.429Z,8.57
2018-09-01T03:14:42.440Z,8.54
2018-09-01T03:15:42.467Z,8.63
2018-09-01T03:16:42.434Z,8.63
2018-09-01T03:17:42.428Z,8.54
2018-09-01T03:18:42.422Z,8.57
2018-09-01T03:19:42.441Z,8.53
2018-09-01T03:20:42.418Z,8.55
2018-09-01T03:21:42.590Z,8.58
2018-09-01T03:22:42.416Z,8.44
2018-09-01T03:23:42.405Z,8.45
2018-09-01T03:24:42.437Z,8.44
2018-09-01T03:25:42.395Z,8.44
2018-09-01T03:26:42.399Z,8.33
2018-09-01T03:27:42.395Z,8.33
2018-09-01T03:28:42.386Z,8.32
2018-09-01T03:29:42.413Z,8.32
2018-09-01T03:30:42.388Z,8.39
2018-09-01T03:31:42.383Z,8.30
2018-09-01T03:32:42.375Z,8.33
2018-09-01T03:33:42.377Z,8.39
2018-09-01T03:34:42.399Z,8.35
2018-09-01T03:35:42.364Z,8.20
2018-09-01T03:36:42.372Z,8.21
2018-09-01T03:37:42.361Z,8.14
2018-09-01T03:38:42.352Z,8.14
2018-09-01T03:39:42.383Z,8.18
2018-09-01T03:40:42.347Z,8.18
2018-09-01T03:41:42.353Z,8.22
2018-09-01T03:42:42.345Z,8.29
2018-09-01T03:43:42.340Z,8.20
2018-09-01T03:44:42.364Z,8.33
2018-09-01T03:45:42.332Z,8.25
2018-09-01T03:46:42.334Z,8.22
2018-09-01T03:47:42.329Z,8.17
2018-09-01T03:48:42.332Z,8.22
2018-09-01T03:49:42.348Z,8.28
2018-09-01T03:50:42.317Z,8.26
2018-09-01T03:51:42.314Z,8.22
2018-09-01T03:52:42.313Z,8.26
2018-09-01T03:53:42.307Z,8.25
2018-09-01T03:54:42.334Z,8.22
2018-09-01T03:55:42.304Z,8.25
2018-09-01T03:56:42.297Z,8.12
2018-09-01T03:57:42.295Z,8.14
2018-09-01T03:58:42.291Z,8.14
2018-09-01T03:59:42.322Z,8.10
2018-09-01T04:00:42.320Z,8.00
2018-09-01T04:01:42.280Z,8.04
2018-09-01T04:02:42.282Z,7.96
2018-09-01T04:03:42.275Z,7.97
2018-09-01T04:04:42.271Z,8.00
2018-09-01T04:05:42.302Z,7.90
2018-09-01T04:06:42.273Z,7.96
2018-09-01T04:07:42.265Z,7.85
2018-09-01T04:08:42.269Z,7.97
2018-09-01T04:09:42.256Z,8.14
2018-09-01T04:10:42.289Z,8.03
2018-09-01T04:11:42.247Z,8.04
2018-09-01T04:12:42.240Z,8.07
2018-09-01T04:13:42.245Z,7.99
2018-09-01T04:14:42.238Z,8.04
2018-09-01T04:15:42.265Z,7.97
2018-09-01T04:16:42.231Z,7.97
2018-09-01T04:17:42.226Z,7.99
2018-09-01T04:18:42.225Z,7.99
2018-09-01T04:19:42.220Z,7.94
2018-09-01T04:20:42.247Z,7.99
2018-09-01T04:21:42.217Z,8.12
2018-09-01T04:22:42.213Z,8.20
2018-09-01T04:23:42.211Z,8.21
2018-09-01T04:24:42.205Z,8.08
2018-09-01T04:25:42.228Z,8.08
2018-09-01T04:26:42.201Z,8.07
2018-09-01T04:27:42.193Z,7.94
2018-09-01T04:28:42.192Z,8.02
2018-09-01T04:29:42.185Z,8.03
2018-09-01T04:30:42.211Z,7.93
2018-09-01T04:31:42.209Z,8.02
2018-09-01T04:32:42.176Z,7.96
2018-09-01T04:33:42.178Z,8.02
2018-09-01T04:34:42.175Z,7.96
2018-09-01T04:35:42.167Z,8.03
2018-09-01T04:36:42.194Z,8.07
2018-09-01T04:37:42.168Z,8.04
2018-09-01T04:38:42.158Z,8.02
2018-09-01T04:39:42.157Z,8.03
2018-09-01T04:40:42.156Z,8.15
2018-09-01T04:41:42.382Z,8.08
2018-09-01T04:42:42.254Z,8.14
2018-09-01T04:43:42.144Z,8.12
2018-09-01T04:44:42.138Z,8.18
2018-09-01T04:45:42.164Z,8.11
2018-09-01T04:46:42.157Z,8.14
2018-09-01T04:47:42.135Z,8.17
2018-09-01T04:48:42.129Z,8.14
2018-09-01T04:49:42.122Z,8.11
2018-09-01T04:50:42.112Z,8.12
2018-09-01T04:51:42.136Z,8.15
2018-09-01T04:52:42.114Z,8.15
2018-09-01T04:53:42.108Z,8.14
2018-09-01T04:54:42.106Z,8.20
2018-09-01T04:55:42.101Z,8.22
2018-09-01T04:56:42.124Z,8.22
2018-09-01T04:57:42.095Z,8.32
2018-09-01T04:58:42.086Z,8.35
2018-09-01T04:59:42.089Z,8.30
2018-09-01T05:00:42.095Z,8.37
2018-09-01T05:01:42.110Z,8.32
2018-09-01T05:02:42.078Z,8.45
2018-09-01T05:03:42.069Z,8.44
2018-09-01T05:04:42.075Z,8.50
2018-09-01T05:05:42.090Z,8.54
2018-09-01T05:06:42.094Z,8.55
2018-09-01T05:07:42.060Z,8.50
2018-09-01T05:08:42.058Z,8.58
2018-09-01T05:09:42.055Z,8.58
2018-09-01T05:10:42.050Z,8.65
2018-09-01T05:11:42.083Z,8.63
2018-09-01T05:12:42.053Z,8.66
2018-09-01T05:13:42.045Z,8.73
2018-09-01T05:14:42.038Z,8.66
2018-09-01T05:15:42.035Z,8.68
2018-09-01T05:16:42.055Z,8.72
2018-09-01T05:17:42.031Z,8.66
2018-09-01T05:18:42.028Z,8.75
2018-09-01T05:19:42.024Z,8.73
2018-09-01T05:20:42.015Z,8.76
2018-09-01T05:21:42.048Z,8.83
2018-09-01T05:22:42.012Z,8.93
2018-09-01T05:23:42.011Z,8.93
2018-09-01T05:24:42.021Z,9.04
2018-09-01T05:25:42.003Z,9.09
2018-09-01T05:26:42.036Z,9.09
2018-09-01T05:27:41.998Z,9.23
2018-09-01T05:28:41.992Z,9.25
2018-09-01T05:29:42.006Z,9.31
2018-09-01T05:30:42.007Z,9.40
2018-09-01T05:31:42.012Z,9.40
2018-09-01T05:32:41.990Z,9.34
2018-09-01T05:33:41.985Z,9.38
2018-09-01T05:34:41.980Z,9.39
2018-09-01T05:35:41.976Z,9.34
2018-09-01T05:36:42.082Z,9.30
2018-09-01T05:37:41.974Z,9.35
2018-09-01T05:38:41.969Z,9.40
2018-09-01T05:39:41.961Z,9.34
2018-09-01T05:40:41.965Z,9.32
2018-09-01T05:41:41.993Z,9.35
2018-09-01T05:42:41.954Z,9.32
2018-09-01T05:43:41.997Z,9.35
2018-09-01T05:44:41.957Z,9.46
2018-09-01T05:45:41.949Z,9.35
2018-09-01T05:46:41.977Z,9.42
2018-09-01T05:47:41.941Z,9.34
2018-09-01T05:48:41.941Z,9.34
2018-09-01T05:49:41.937Z,9.35
2018-09-01T05:50:41.937Z,9.45
2018-09-01T05:51:41.958Z,9.39
2018-09-01T05:52:41.929Z,9.38
2018-09-01T05:53:41.922Z,9.45
2018-09-01T05:54:41.926Z,9.43
2018-09-01T05:55:41.925Z,9.49
2018-09-01T05:56:41.948Z,9.40
2018-09-01T05:57:41.920Z,9.58
2018-09-01T05:58:41.914Z,9.67
2018-09-01T05:59:41.910Z,9.61
2018-09-01T06:00:41.937Z,9.85
2018-09-01T06:01:41.944Z,10.03
2018-09-01T06:02:41.908Z,10.30
2018-09-01T06:03:41.909Z,10.58
2018-09-01T06:04:41.898Z,10.98
2018-09-01T06:05:41.898Z,11.27
2018-09-01T06:06:41.921Z,11.32
2018-09-01T06:07:41.889Z,11.57
2018-09-01T06:08:41.891Z,11.87
2018-09-01T06:09:41.898Z,12.23
2018-09-01T06:10:41.887Z,12.49
2018-09-01T06:11:41.911Z,12.60
2018-09-01T06:12:41.881Z,12.75
2018-09-01T06:13:41.875Z,13.29
2018-09-01T06:14:41.889Z,13.65
2018-09-01T06:15:41.876Z,14.06
2018-09-01T06:16:41.897Z,14.52
2018-09-01T06:17:41.986Z,14.60
2018-09-01T06:18:41.879Z,14.81
2018-09-01T06:19:41.872Z,14.80
2018-09-01T06:20:41.868Z,14.75
2018-09-01T06:21:41.904Z,14.57
2018-09-01T06:22:41.868Z,14.84
2018-09-01T06:23:41.867Z,14.93
2018-09-01T06:24:41.877Z,15.15
2018-09-01T06:25:41.875Z,15.35
2018-09-01T06:26:41.906Z,15.67
2018-09-01T06:27:41.864Z,15.81
2018-09-01T06:28:41.862Z,15.94
2018-09-01T06:29:41.866Z,16.16
2018-09-01T06:30:41.862Z,15.76
2018-09-01T06:31:41.891Z,15.93
2018-09-01T06:32:41.894Z,16.11
2018-09-01T06:33:41.859Z,16.26
2018-09-01T06:34:41.858Z,16.56
2018-09-01T06:35:41.863Z,16.86
2018-09-01T06:36:41.862Z,16.92
2018-09-01T06:37:41.957Z,16.92
2018-09-01T06:38:41.864Z,17.28
2018-09-01T06:39:41.866Z,17.35
2018-09-01T06:40:41.868Z,17.59
2018-09-01T06:41:41.987Z,17.74
2018-09-01T06:42:41.867Z,18.04
2018-09-01T06:43:41.864Z,18.03
2018-09-01T06:44:41.871Z,18.04
2018-09-01T06:45:41.874Z,18.31
2018-09-01T06:46:41.911Z,18.44
2018-09-01T06:47:41.871Z,18.50
2018-09-01T06:48:41.874Z,18.31
2018-09-01T06:49:41.877Z,18.44
2018-09-01T06:50:41.881Z,18.68
2018-09-01T06:51:41.914Z,18.49
2018-09-01T06:52:41.879Z,18.31
2018-09-01T06:53:41.881Z,17.81
2018-09-01T06:54:41.888Z,17.54
2018-09-01T06:55:41.888Z,17.11
2018-09-01T06:56:41.920Z,16.62
2018-09-01T06:57:41.889Z,16.18
2018-09-01T06:58:41.900Z,16.00
2018-09-01T06:59:41.896Z,15.70
2018-09-01T07:00:41.898Z,15.94
2018-09-01T07:01:41.926Z,16.53
2018-09-01T07:02:41.901Z,16.71
2018-09-01T07:03:41.901Z,16.52
2018-09-01T07:04:41.897Z,16.04
2018-09-01T07:05:41.904Z,16.07
2018-09-01T07:06:41.932Z,16.23
2018-09-01T07:07:41.907Z,16.59
2018-09-01T07:08:41.929Z,16.86
2018-09-01T07:09:41.907Z,17.03
2018-09-01T07:10:41.913Z,17.22
2018-09-01T07:11:41.942Z,16.81
2018-09-01T07:12:41.911Z,16.18
2018-09-01T07:13:41.918Z,16.01
2018-09-01T07:14:41.926Z,15.94
2018-09-01T07:15:41.930Z,16.49
2018-09-01T07:16:41.951Z,16.96
2018-09-01T07:17:41.930Z,17.23
2018-09-01T07:18:41.935Z,17.35
2018-09-01T07:19:41.931Z,17.18
2018-09-01T07:20:41.937Z,17.00
2018-09-01T07:21:41.993Z,17.14
2018-09-01T07:22:41.944Z,17.20
2018-09-01T07:23:41.954Z,17.29
2018-09-01T07:24:41.954Z,17.48
2018-09-01T07:25:41.972Z,17.59
2018-09-01T07:26:41.952Z,17.97
2018-09-01T07:27:41.950Z,18.49
2018-09-01T07:28:41.988Z,18.49
2018-09-01T07:29:41.960Z,18.92
2018-09-01T07:30:42.171Z,19.31
2018-09-01T07:31:41.995Z,19.53
2018-09-01T07:32:41.969Z,19.70
2018-09-01T07:33:41.974Z,19.51
2018-09-01T07:34:41.976Z,19.20
2018-09-01T07:35:41.981Z,19.24
2018-09-01T07:36:42.013Z,19.10
2018-09-01T07:37:41.990Z,18.42
2018-09-01T07:38:41.988Z,17.33
2018-09-01T07:39:41.998Z,16.95
2018-09-01T07:40:41.996Z,17.66
2018-09-01T07:41:42.036Z,18.64
2018-09-01T07:42:42.018Z,19.38
2018-09-01T07:43:42.022Z,19.58
2018-09-01T07:44:42.016Z,20.03
2018-09-01T07:45:42.054Z,19.80
2018-09-01T07:46:42.030Z,20.30
2018-09-01T07:47:42.031Z,20.69
2018-09-01T07:48:42.039Z,20.98
2018-09-01T07:49:42.046Z,21.57
2018-09-01T07:50:42.085Z,21.71
2018-09-01T07:51:42.053Z,21.48
2018-09-01T07:52:42.059Z,21.27
2018-09-01T07:53:42.078Z,20.74
2018-09-01T07:54:42.120Z,20.47
2018-09-01T07:55:42.102Z,20.31
2018-09-01T07:56:42.102Z,20.24
2018-09-01T07:57:42.091Z,20.23
2018-09-01T07:58:42.101Z,20.18
2018-09-01T07:59:42.103Z,19.65
2018-09-01T08:00:42.142Z,19.40
2018-09-01T08:01:42.125Z,19.39
2018-09-01T08:02:42.126Z,19.36
2018-09-01T08:03:42.135Z,19.43
2018-09-01T08:04:42.167Z,19.40
2018-09-01T08:05:42.151Z,19.38
2018-09-01T08:06:42.156Z,18.97
2018-09-01T08:07:42.157Z,18.86
2018-09-01T08:08:42.160Z,18.87
2018-09-01T08:09:42.219Z,18.97
2018-09-01T08:10:42.178Z,19.25
2018-09-01T08:11:42.182Z,19.55
2018-09-01T08:12:42.188Z,19.33
2018-09-01T08:13:42.261Z,19.40
2018-09-01T08:14:42.269Z,19.76
2018-09-01T08:15:42.206Z,20.24
2018-09-01T08:16:42.213Z,19.68
2018-09-01T08:17:42.222Z,19.94
2018-09-01T08:18:42.231Z,20.03
2018-09-01T08:19:42.286Z,20.64
2018-09-01T08:20:42.245Z,20.74
2018-09-01T08:21:42.246Z,20.53
2018-09-01T08:22:42.265Z,20.03
2018-09-01T08:23:42.258Z,20.27
2018-09-01T08:24:42.298Z,20.54
2018-09-01T08:25:42.271Z,20.99
2018-09-01T08:26:42.287Z,21.08
2018-09-01T08:27:42.287Z,21.50
2018-09-01T08:28:42.298Z,21.91
2018-09-01T08:29:42.335Z,22.19
2018-09-01T08:30:42.318Z,22.28
2018-09-01T08:31:42.327Z,22.35
2018-09-01T08:32:42.335Z,22.32
2018-09-01T08:33:42.416Z,22.31
2018-09-01T08:34:42.379Z,22.34
2018-09-01T08:35:42.364Z,22.50
2018-09-01T08:36:42.371Z,22.78
2018-09-01T08:37:42.377Z,23.24
2018-09-01T08:38:42.392Z,23.12
2018-09-01T08:39:42.427Z,22.86
2018-09-01T08:40:42.440Z,22.89
2018-09-01T08:41:42.419Z,23.47
2018-09-01T08:42:42.432Z,23.90
2018-09-01T08:43:42.438Z,24.45
2018-09-01T08:44:42.477Z,24.38
2018-09-01T08:45:42.458Z,24.22
2018-09-01T08:46:42.472Z,23.80
2018-09-01T08:47:42.480Z,22.32
2018-09-01T08:48:42.499Z,20.72
2018-09-01T08:49:42.531Z,20.64
2018-09-01T08:50:42.551Z,20.16
2018-09-01T08:51:42.546Z,19.78
2018-09-01T08:52:42.536Z,19.54
2018-09-01T08:53:42.544Z,19.17
2018-09-01T08:54:42.587Z,18.62
2018-09-01T08:55:42.617Z,18.76
2018-09-01T08:56:42.635Z,18.59
2018-09-01T08:57:42.583Z,18.70
2018-09-01T08:58:42.597Z,19.18
2018-09-01T08:59:42.601Z,19.33
2018-09-01T09:00:42.642Z,19.65
2018-09-01T09:01:42.623Z,19.54
2018-09-01T09:02:42.631Z,19.35
2018-09-01T09:03:42.639Z,19.48
2018-09-01T09:04:42.679Z,19.76
2018-09-01T09:05:42.776Z,20.43
2018-09-01T09:06:42.692Z,20.91
2018-09-01T09:07:42.674Z,20.61
2018-09-01T09:08:42.681Z,20.47
2018-09-01T09:09:42.719Z,20.25
2018-09-01T09:10:42.728Z,20.69
2018-09-01T09:11:42.800Z,21.38
2018-09-01T09:12:42.719Z,21.88
2018-09-01T09:13:42.724Z,22.34
2018-09-01T09:14:42.767Z,21.48
2018-09-01T09:15:42.768Z,20.08
2018-09-01T09:16:42.756Z,19.91
2018-09-01T09:17:42.763Z,19.42
2018-09-01T09:18:42.827Z,19.13
2018-09-01T09:19:42.809Z,19.21
2018-09-01T09:20:42.793Z,18.62
2018-09-01T09:21:42.932Z,18.44
2018-09-01T09:22:42.804Z,18.52
2018-09-01T09:23:42.812Z,18.79
2018-09-01T09:24:42.847Z,19.29
2018-09-01T09:25:42.828Z,19.70
2018-09-01T09:26:42.839Z,19.91
2018-09-01T09:27:42.845Z,20.83
2018-09-01T09:28:42.849Z,20.58
2018-09-01T09:29:42.891Z,20.02
2018-09-01T09:30:42.881Z,19.98
2018-09-01T09:31:42.883Z,20.06
2018-09-01T09:32:42.887Z,20.28
2018-09-01T09:33:42.897Z,20.09
2018-09-01T09:34:42.918Z,19.95
2018-09-01T09:35:44.866Z,19.32
2018-09-01T09:36:42.910Z,19.15
2018-09-01T09:37:42.920Z,18.79
2018-09-01T09:38:42.923Z,18.64
2018-09-01T09:39:42.958Z,18.54
2018-09-01T09:40:42.983Z,18.33
2018-09-01T09:41:42.980Z,18.27
2018-09-01T09:42:42.950Z,18.42
2018-09-01T09:43:42.955Z,18.74
2018-09-01T09:44:42.988Z,19.58
2018-09-01T09:45:42.968Z,19.93
2018-09-01T09:46:42.975Z,20.03
2018-09-01T09:47:45.875Z,20.47
2018-09-01T09:48:42.990Z,21.38
2018-09-01T09:49:43.026Z,21.69
2018-09-01T09:50:43.002Z,21.75
2018-09-01T09:51:43.007Z,21.63
2018-09-01T09:52:43.016Z,21.27
2018-09-01T09:53:43.032Z,21.35
2018-09-01T09:54:43.066Z,21.72
2018-09-01T09:55:43.040Z,21.90
2018-09-01T09:56:43.056Z,22.04
2018-09-01T09:57:43.061Z,22.35
2018-09-01T09:58:43.106Z,21.78
2018-09-01T09:59:43.088Z,21.69
2018-09-01T10:00:43.100Z,21.71
2018-09-01T10:01:43.217Z,21.34
2018-09-01T10:02:43.123Z,21.32
2018-09-01T10:03:43.165Z,21.13
2018-09-01T10:04:43.146Z,20.50
2018-09-01T10:05:43.224Z,19.70
2018-09-01T10:06:43.170Z,19.86
2018-09-01T10:07:43.182Z,20.34
2018-09-01T10:08:43.225Z,20.71
2018-09-01T10:09:43.215Z,19.93
2018-09-01T10:10:44.016Z,19.31
2018-09-01T10:11:43.231Z,18.90
2018-09-01T10:12:43.243Z,18.98
2018-09-01T10:13:43.283Z,19.36
2018-09-01T10:14:43.262Z,19.31
2018-09-01T10:15:43.312Z,19.13
2018-09-01T10:16:43.977Z,19.10
2018-09-01T10:17:43.564Z,18.79
2018-09-01T10:18:43.885Z,19.08
2018-09-01T10:19:43.579Z,19.02
2018-09-01T10:20:43.888Z,18.97
2018-09-01T10:21:44.060Z,18.76
2018-09-01T10:22:43.340Z,19.24
2018-09-01T10:23:44.924Z,19.53
2018-09-01T10:24:44.625Z,19.55
2018-09-01T10:25:43.597Z,19.10
2018-09-01T10:26:43.555Z,18.98
2018-09-01T10:27:43.382Z,18.99
2018-09-01T10:28:43.397Z,18.91
2018-09-01T10:29:43.428Z,19.17
2018-09-01T10:30:43.421Z,19.23
2018-09-01T10:31:43.446Z,19.38
2018-09-01T10:32:43.418Z,18.55
2018-09-01T10:33:43.419Z,18.67
2018-09-01T10:34:43.459Z,19.20
2018-09-01T10:35:43.461Z,19.57
2018-09-01T10:36:43.441Z,19.69
2018-09-01T10:37:43.447Z,19.98
2018-09-01T10:38:43.459Z,20.03
2018-09-01T10:39:43.461Z,20.12
2018-09-01T10:40:43.493Z,20.41
2018-09-01T10:41:43.470Z,20.61
2018-09-01T10:42:43.481Z,20.81
2018-09-01T10:43:43.488Z,21.14
2018-09-01T10:44:43.524Z,21.29
2018-09-01T10:45:43.500Z,21.23
2018-09-01T10:46:43.538Z,21.27
2018-09-01T10:47:43.510Z,21.08
2018-09-01T10:48:43.519Z,21.02
2018-09-01T10:49:43.625Z,21.05
2018-09-01T10:50:43.690Z,20.99
2018-09-01T10:51:44.419Z,20.91
2018-09-01T10:52:44.948Z,20.47
2018-09-01T10:53:44.549Z,20.41
2018-09-01T10:54:43.578Z,20.35
2018-09-01T10:55:43.609Z,20.34
2018-09-01T10:56:43.582Z,20.20
2018-09-01T10:57:43.586Z,20.06
2018-09-01T10:58:43.666Z,19.93
2018-09-01T10:59:43.623Z,20.20
2018-09-01T11:00:43.641Z,20.25
2018-09-01T11:01:43.624Z,20.64
2018-09-01T11:02:43.630Z,20.23
2018-09-01T11:03:43.634Z,20.28
2018-09-01T11:04:43.643Z,20.49
2018-09-01T11:05:43.769Z,19.91
2018-09-01T11:06:43.654Z,20.10
2018-09-01T11:07:43.662Z,20.51
2018-09-01T11:08:43.667Z,20.89
2018-09-01T11:09:43.682Z,21.39
2018-09-01T11:10:43.707Z,21.91
2018-09-01T11:11:43.686Z,22.53
2018-09-01T11:12:43.695Z,22.83
2018-09-01T11:13:43.708Z,23.19
2018-09-01T11:14:43.719Z,23.01
2018-09-01T11:15:43.755Z,22.65
2018-09-01T11:16:43.738Z,22.75
2018-09-01T11:17:43.776Z,22.56
2018-09-01T11:18:43.755Z,22.59
2018-09-01T11:19:43.775Z,22.57
2018-09-01T11:20:43.793Z,22.17
2018-09-01T11:21:43.822Z,22.01
2018-09-01T11:22:43.799Z,21.83
2018-09-01T11:23:43.804Z,21.56
2018-09-01T11:24:43.814Z,21.81
2018-09-01T11:25:43.820Z,21.54
2018-09-01T11:26:43.864Z,21.23
2018-09-01T11:27:43.902Z,21.24
2018-09-01T11:28:43.849Z,21.34
2018-09-01T11:29:43.858Z,21.50
2018-09-01T11:30:43.945Z,21.51
2018-09-01T11:31:43.903Z,21.53
2018-09-01T11:32:43.894Z,20.87
2018-09-01T11:33:43.929Z,20.59
2018-09-01T11:34:43.897Z,20.46
2018-09-01T11:35:43.906Z,20.41
2018-09-01T11:36:43.957Z,20.46
2018-09-01T11:37:43.922Z,20.61
2018-09-01T11:38:43.930Z,20.38
2018-09-01T11:39:43.934Z,20.20
2018-09-01T11:40:43.959Z,20.15
2018-09-01T11:41:43.976Z,20.09
2018-09-01T11:42:44.068Z,20.20
2018-09-01T11:43:43.963Z,19.72
2018-09-01T11:44:43.971Z,19.38
2018-09-01T11:45:43.975Z,19.66
2018-09-01T11:46:44.012Z,19.68
2018-09-01T11:47:43.994Z,19.93
2018-09-01T11:48:44.005Z,19.63
2018-09-01T11:49:44.004Z,19.58
2018-09-01T11:50:44.009Z,19.66
2018-09-01T11:51:44.040Z,19.43
2018-09-01T11:52:44.021Z,19.20
2018-09-01T11:53:44.115Z,19.32
2018-09-01T11:54:44.034Z,18.97
2018-09-01T11:55:44.037Z,19.36
2018-09-01T11:56:44.069Z,19.42
2018-09-01T11:57:44.048Z,19.15
2018-09-01T11:58:44.100Z,19.51
2018-09-01T11:59:44.061Z,19.75
2018-09-01T12:00:44.066Z,19.88
2018-09-01T12:01:44.097Z,19.78
2018-09-01T12:02:44.077Z,19.55
2018-09-01T12:03:44.079Z,19.38
2018-09-01T12:04:44.086Z,19.53
2018-09-01T12:05:44.091Z,19.25
2018-09-01T12:06:44.130Z,18.95
2018-09-01T12:07:44.102Z,19.02
2018-09-01T12:08:44.137Z,18.64
2018-09-01T12:09:44.112Z,18.57
2018-09-01T12:10:45.051Z,18.82
2018-09-01T12:11:44.147Z,19.06
2018-09-01T12:12:44.126Z,19.20
2018-09-01T12:13:44.131Z,19.32
2018-09-01T12:14:44.139Z,19.38
2018-09-01T12:15:44.152Z,19.43
2018-09-01T12:16:44.171Z,19.38
2018-09-01T12:17:44.151Z,19.42
2018-09-01T12:18:44.770Z,19.57
2018-09-01T12:19:44.157Z,19.50
2018-09-01T12:20:44.162Z,19.35
2018-09-01T12:21:44.193Z,19.39
2018-09-01T12:22:44.168Z,18.98
2018-09-01T12:23:44.172Z,18.64
2018-09-01T12:24:44.178Z,18.47
2018-09-01T12:25:44.182Z,18.74
2018-09-01T12:26:44.214Z,18.99
2018-09-01T12:27:44.217Z,18.86
2018-09-01T12:28:44.201Z,18.54
2018-09-01T12:29:44.199Z,18.49
2018-09-01T12:30:44.221Z,18.86
2018-09-01T12:31:44.249Z,18.98
2018-09-01T12:32:44.216Z,19.13
2018-09-01T12:33:44.213Z,19.17
2018-09-01T12:34:44.218Z,19.35
2018-09-01T12:35:44.226Z,19.39
2018-09-01T12:36:44.255Z,19.33
2018-09-01T12:37:44.251Z,19.15
2018-09-01T12:38:44.231Z,19.29
2018-09-01T12:39:44.243Z,19.29
2018-09-01T12:40:44.242Z,19.33
2018-09-01T12:41:44.241Z,19.25
2018-09-01T12:42:44.274Z,18.80
2018-09-01T12:43:44.252Z,18.62
2018-09-01T12:44:44.256Z,18.40
2018-09-01T12:45:44.259Z,18.40
2018-09-01T12:46:44.271Z,18.49
2018-09-01T12:47:44.292Z,18.76
2018-09-01T12:48:44.274Z,18.92
2018-09-01T12:49:44.300Z,18.62
2018-09-01T12:50:44.286Z,18.73
2018-09-01T12:51:44.280Z,18.46
2018-09-01T12:52:44.312Z,18.57
2018-09-01T12:53:44.288Z,18.46
2018-09-01T12:54:44.296Z,18.34
2018-09-01T12:55:44.306Z,18.43
2018-09-01T12:56:44.306Z,18.76
2018-09-01T12:57:44.333Z,18.59
2018-09-01T12:58:44.310Z,18.83
2018-09-01T12:59:44.309Z,18.58
2018-09-01T13:00:44.350Z,18.72
2018-09-01T13:01:44.317Z,18.86